Flight Track Log - Related Links

Times and Time Zones

All times are in EDT time to prevent confusion due to time zone crossing. See the UAL341 flight status page for this flight to view local times or setup timezone preferences in your user account.

Time Position Orientation Groundspeed Altitude Reporting Facility
EDT Latitude Longitude Course Direction KTS MPH feet Rate Location/Type
Sat 11:07:36 AM 40.7500 -73.8000 37° Northeast 193 222 2,700  Level New York TRACON
Sat 11:08:36 AM 40.8000 -73.7500 37° Northeast 239 275 5,500 2,900 Climbing New York TRACON
Sat 11:09:36 AM 40.8667 -73.7333 11° North 272 313 8,500 3,000 Climbing New York TRACON
Sat 11:10:36 AM 40.9167 -73.8167 308° West 301 346 11,500 2,900 Climbing New York TRACON
Sat 11:11:36 AM 40.9667 -73.9167 304° West 312 359 14,300 1,800 Climbing New York TRACON
Sat 11:12:36 AM 40.9833 -74.0167 282° West 331 381 15,100 400 Climbing New York TRACON
Sat 11:13:36 AM 40.9500 -74.1333 249° West 329 379 15,100 50 Level New York TRACON
Sat 11:14:36 AM 40.9000 -74.2500 240° Southwest 370 426 15,200 950 Climbing New York TRACON
Sat 11:15:36 AM 40.8500 -74.3667 240° Southwest 377 434 17,000 857 Climbing New York TRACON
Sat 11:16:42 AM 40.7833 -74.5000 271° West 393 452 17,000 318 Level New York TRACON
Sat 11:18:07 AM 40.7178 -74.6753 244° Southwest 402 463 17,800 993 Climbing New York Center
Sat 11:19:07 AM 40.6683 -74.7875 240° Southwest 402 463 19,400 1,750 Climbing New York Center
Sat 11:20:07 AM 40.6036 -74.9094 235° Southwest 402 463 21,300 1,835 Climbing New York Center
Sat 11:21:08 AM 40.5325 -75.0308 232° Southwest 418 481 23,100 1,881 Climbing New York Center
Sat 11:22:05 AM 40.4569 -75.1597 232° Southwest 438 504 25,000 1,795 Climbing New York Center
Sat 11:23:05 AM 40.3833 -75.2886 233° Southwest 449 517 26,600 1,587 Climbing New York Center
Sat 11:24:06 AM 40.3075 -75.4197 233° Southwest 449 517 28,200 1,475 Climbing New York Center
Sat 11:25:07 AM 40.2292 -75.5558 233° Southwest 455 524 29,600 1,513 Climbing New York Center
Sat 11:26:05 AM 40.1489 -75.6833 231° Southwest 460 529 31,200 1,881 Climbing New York Center
Sat 11:27:05 AM 40.0617 -75.8236 231° Southwest 465 535 33,300 1,339 Climbing New York Center
Sat 11:28:06 AM 39.9833 -75.9481 231° Southwest 465 535 33,900 298 Climbing New York Center
Sat 11:29:06 AM 39.9069 -76.0697 231° Southwest 459 528 33,900  Level New York Center
Sat 11:30:07 AM 39.8261 -76.1933 230° Southwest 453 521 33,900 49 Level New York Center
Sat 11:31:08 AM 39.7519 -76.3092 230° Southwest 462 532 34,000  Climbing New York Center
Sat 11:32:37 AM 39.6353 -76.4994 232° Southwest 455 524 33,900  Descending Washington Center
Sat 11:33:38 AM 39.5425 -76.6331 228° Southwest 460 529 34,000 50 Climbing Washington Center
Sat 11:34:38 AM 39.4642 -76.7581 231° Southwest 450 518 34,000  Level Washington Center
Sat 11:35:40 AM 39.3881 -76.8778 231° Southwest 450 518 34,000  Level Washington Center
Sat 11:36:38 AM 39.3117 -76.9972 230° Southwest 444 511 34,000  Level Washington Center
Sat 11:37:39 AM 39.2353 -77.1136 230° Southwest 444 511 34,000  Level Washington Center
Sat 11:38:39 AM 39.1586 -77.2325 230° Southwest 439 505 34,000  Level Washington Center
Sat 11:39:38 AM 39.0819 -77.3483 230° Southwest 439 505 34,000  Level Washington Center
Sat 11:40:38 AM 39.0050 -77.4669 230° Southwest 439 505 34,000  Level Washington Center
Sat 11:41:38 AM 38.9347 -77.5717 229° Southwest 439 505 34,000 496 Level Washington Center
Sat 11:42:39 AM 38.8489 -77.7053 231° Southwest 439 505 35,000 934 Climbing Washington Center
Sat 11:43:40 AM 38.7742 -77.8150 229° Southwest 447 514 35,900 508 Climbing Washington Center
Sat 11:44:37 AM 38.6989 -77.9325 231° Southwest 447 514 36,000 51 Climbing Washington Center
Sat 11:45:37 AM 38.6214 -78.0497 230° Southwest 447 514 36,000  Level Washington Center
Sat 11:46:39 AM 38.5397 -78.1692 229° Southwest 447 514 36,000  Level Washington Center
Sat 11:47:39 AM 38.4600 -78.2883 230° Southwest 447 514 36,000  Level Washington Center
Sat 11:48:39 AM 38.3781 -78.4097 229° Southwest 447 514 36,000  Level Washington Center
Sat 11:49:37 AM 38.3000 -78.5311 231° Southwest 447 514 36,000  Level Washington Center
Sat 11:50:37 AM 38.2219 -78.6444 229° Southwest 442 509 36,000  Level Washington Center
Sat 11:51:39 AM 38.1419 -78.7625 229° Southwest 442 509 36,000  Level Washington Center
Sat 11:52:39 AM 38.0614 -78.8831 230° Southwest 442 509 36,000  Level Washington Center
Sat 11:53:37 AM 37.9789 -79.0008 228° Southwest 442 509 36,000  Level Washington Center
Sat 11:54:38 AM 37.8917 -79.1308 230° Southwest 442 509 36,000  Level Washington Center
Sat 11:55:38 AM 37.8272 -79.2647 239° Southwest 442 509 36,000  Level Washington Center
Sat 11:56:37 AM 37.7625 -79.3981 238° Southwest 442 509 36,000  Level Washington Center
Sat 11:57:37 AM 37.6983 -79.5156 235° Southwest 455 524 36,000  Level Washington Center
Sat 11:58:38 AM 37.6267 -79.6614 238° Southwest 455 524 36,000  Level Washington Center
Sat 11:59:38 AM 37.5661 -79.7786 237° Southwest 455 524 36,000  Level Washington Center
Sat 12:00:39 PM 37.4919 -79.9292 238° Southwest 455 524 36,000  Level Washington Center
Sat 12:01:39 PM 37.4225 -80.0636 237° Southwest 455 524 36,000  Level Washington Center
Sat 12:02:37 PM 37.3567 -80.1983 238° Southwest 455 524 36,000  Level Washington Center
Sat 12:03:13 PM 37.3222 -80.2628 236° Southwest 463 533 36,000  Level Atlanta Center
Sat 12:04:13 PM 37.2572 -80.3936 238° Southwest 458 527 36,000  Level Atlanta Center
Sat 12:05:13 PM 37.1883 -80.5297 238° Southwest 458 527 36,000  Level Atlanta Center
Sat 12:06:13 PM 37.1231 -80.6575 237° Southwest 453 521 36,000  Level Atlanta Center
Sat 12:07:13 PM 37.0481 -80.8064 238° Southwest 453 521 36,000  Level Atlanta Center
Sat 12:08:13 PM 36.9806 -80.9389 238° Southwest 453 521 36,000 50 Level Atlanta Center
Sat 12:09:13 PM 36.9150 -81.0689 238° Southwest 453 521 36,100 850 Climbing Atlanta Center
Sat 12:10:13 PM 36.8472 -81.2011 237° Southwest 453 521 37,700 950 Climbing Atlanta Center
Sat 12:11:13 PM 36.7892 -81.3094 236° Southwest 448 516 38,000 150 Climbing Atlanta Center
Sat 12:12:13 PM 36.7314 -81.4331 240° Southwest 425 489 38,000  Level Atlanta Center
Sat 12:13:13 PM 36.6592 -81.5700 237° Southwest 425 489 38,000  Level Atlanta Center
Sat 12:14:13 PM 36.5947 -81.6936 237° Southwest 430 495 38,000  Level Atlanta Center
Sat 12:15:13 PM 36.5283 -81.8194 237° Southwest 430 495 38,000  Level Atlanta Center
Sat 12:16:13 PM 36.4678 -81.9322 236° Southwest 436 502 38,000  Level Atlanta Center
Sat 12:17:13 PM 36.4031 -82.0550 237° Southwest 436 502 38,000  Level Atlanta Center
Sat 12:18:13 PM 36.3361 -82.1831 237° Southwest 442 509 38,000  Level Atlanta Center
Sat 12:19:13 PM 36.2714 -82.3056 237° Southwest 442 509 38,000  Level Atlanta Center
Sat 12:20:13 PM 36.2042 -82.4306 236° Southwest 442 509 38,000  Level Atlanta Center
Sat 12:21:13 PM 36.1389 -82.5500 236° Southwest 442 509 38,000  Level Atlanta Center
Sat 12:22:13 PM 36.0758 -82.6772 239° Southwest 442 509 38,000  Level Atlanta Center
Sat 12:23:13 PM 36.0083 -82.8014 236° Southwest 442 509 38,000  Level Atlanta Center
Sat 12:24:13 PM 35.9406 -82.9231 235° Southwest 442 509 38,000  Level Atlanta Center
Sat 12:25:13 PM 35.8750 -83.0469 237° Southwest 447 514 38,000  Level Atlanta Center
Sat 12:26:13 PM 35.8028 -83.1783 236° Southwest 442 509 38,000  Level Atlanta Center
Sat 12:27:13 PM 35.7453 -83.2892 237° Southwest 437 503 38,000  Level Atlanta Center
Sat 12:28:13 PM 35.6792 -83.4125 237° Southwest 437 503 38,000  Level Atlanta Center
Sat 12:29:13 PM 35.6128 -83.5331 236° Southwest 437 503 38,000  Level Atlanta Center
Sat 12:30:13 PM 35.5403 -83.6583 235° Southwest 437 503 38,000  Level Atlanta Center
Sat 12:31:13 PM 35.4761 -83.7811 237° Southwest 432 497 38,000  Level Atlanta Center
Sat 12:32:13 PM 35.4072 -83.8986 234° Southwest 432 497 38,000  Level Atlanta Center
Sat 12:33:13 PM 35.3428 -84.0158 236° Southwest 426 490 38,000  Level Atlanta Center
Sat 12:34:13 PM 35.2800 -84.1328 237° Southwest 421 484 38,000  Level Atlanta Center
Sat 12:35:13 PM 35.2133 -84.2472 235° Southwest 421 484 38,000  Level Atlanta Center
Sat 12:36:13 PM 35.1503 -84.3614 236° Southwest 421 484 38,000  Level Atlanta Center
Sat 12:37:13 PM 35.0875 -84.4778 237° Southwest 416 479 38,000  Level Atlanta Center
Sat 12:38:13 PM 35.0203 -84.5917 234° Southwest 421 484 38,000  Level Atlanta Center
Sat 12:39:13 PM 34.9550 -84.7053 235° Southwest 421 484 38,000  Level Atlanta Center
Sat 12:40:13 PM 34.8894 -84.8211 235° Southwest 421 484 38,000  Level Atlanta Center
Sat 12:41:13 PM 34.8242 -84.9394 236° Southwest 421 484 38,000  Level Atlanta Center
Sat 12:42:13 PM 34.7586 -85.0525 235° Southwest 421 484 38,000  Level Atlanta Center
Sat 12:43:13 PM 34.6928 -85.1681 235° Southwest 421 484 38,000  Level Atlanta Center
Sat 12:44:13 PM 34.6250 -85.2858 235° Southwest 421 484 38,000  Level Atlanta Center
Sat 12:45:13 PM 34.5589 -85.4008 235° Southwest 421 484 38,000  Level Atlanta Center
Sat 12:46:13 PM 34.4931 -85.5131 235° Southwest 421 484 38,000  Level Atlanta Center
Sat 12:47:13 PM 34.4289 -85.6253 235° Southwest 421 484 38,000  Level Atlanta Center
Sat 12:48:13 PM 34.3692 -85.7325 236° Southwest 421 484 38,000  Level Atlanta Center
Sat 12:49:13 PM 34.2922 -85.8542 233° Southwest 421 484 38,000  Level Atlanta Center
Sat 12:50:13 PM 34.2258 -85.9683 235° Southwest 421 484 38,000  Level Atlanta Center
Sat 12:51:13 PM 34.1572 -86.0822 234° Southwest 426 490 38,000  Level Atlanta Center
Sat 12:52:13 PM 34.0883 -86.2008 235° Southwest 431 496 38,000  Level Atlanta Center
Sat 12:53:13 PM 34.0175 -86.3144 233° Southwest 431 496 38,000  Level Atlanta Center
Sat 12:54:13 PM 33.9506 -86.4303 235° Southwest 431 496 38,000  Level Atlanta Center
Sat 12:55:13 PM 33.8794 -86.5458 233° Southwest 431 496 38,000  Level Atlanta Center
Sat 12:56:13 PM 33.8189 -86.6492 235° Southwest 431 496 38,000  Level Atlanta Center
Sat 12:57:13 PM 33.7494 -86.7644 234° Southwest 431 496 38,000  Level Atlanta Center
Sat 12:58:13 PM 33.6800 -86.8822 235° Southwest 431 496 38,000  Level Atlanta Center
Sat 12:59:13 PM 33.6456 -87.0158 253° West 418 481 38,000  Level Atlanta Center
Sat 01:00:13 PM 33.6253 -87.1572 260° West 423 487 38,000  Level Atlanta Center
Sat 01:01:44 PM 33.5922 -87.3747 260° West 438 504 38,000  Level Memphis Center
Sat 01:02:44 PM 33.5664 -87.5253 258° West 438 504 38,000  Level Memphis Center
Sat 01:03:44 PM 33.5444 -87.6628 259° West 428 493 38,000  Level Memphis Center
Sat 01:04:44 PM 33.5203 -87.8033 258° West 428 493 38,000  Level Memphis Center
Sat 01:05:44 PM 33.4958 -87.9408 258° West 428 493 38,000  Level Memphis Center
Sat 01:06:44 PM 33.4733 -88.0786 259° West 428 493 38,000  Level Memphis Center
Sat 01:07:44 PM 33.4550 -88.2158 261° West 428 493 38,000  Level Memphis Center
Sat 01:08:44 PM 33.4303 -88.3533 258° West 428 493 38,000  Level Memphis Center
Sat 01:09:44 PM 33.4072 -88.4883 258° West 428 493 38,000  Level Memphis Center
Sat 01:10:44 PM 33.3842 -88.6231 258° West 428 493 38,000  Level Memphis Center
Sat 01:11:44 PM 33.3589 -88.7581 257° West 428 493 38,000  Level Memphis Center
Sat 01:12:44 PM 33.3353 -88.8903 258° West 421 484 38,000  Level Memphis Center
Sat 01:13:44 PM 33.3119 -89.0247 258° West 414 476 38,000  Level Memphis Center
Sat 01:14:44 PM 33.2881 -89.1544 258° West 414 476 38,000  Level Memphis Center
Sat 01:15:44 PM 33.2622 -89.2839 257° West 414 476 38,000  Level Memphis Center
Sat 01:16:44 PM 33.2422 -89.4033 259° West 414 476 38,000  Level Memphis Center
Sat 01:17:44 PM 33.2181 -89.5328 257° West 409 471 38,000  Level Memphis Center
Sat 01:18:44 PM 33.1939 -89.6647 258° West 409 471 38,000  Level Memphis Center
Sat 01:19:44 PM 33.1611 -89.7964 253° West 409 471 38,000  Level Memphis Center
Sat 01:20:44 PM 33.1158 -89.9208 247° West 420 483 38,000  Level Memphis Center
Sat 01:21:44 PM 33.0639 -90.0425 243° Southwest 420 483 38,000  Level Memphis Center
Sat 01:22:44 PM 33.0161 -90.1639 245° Southwest 413 475 38,000  Level Memphis Center
Sat 01:23:44 PM 32.9619 -90.2928 243° Southwest 402 463 38,000  Level Memphis Center
Sat 01:24:44 PM 32.9142 -90.4117 244° Southwest 402 463 38,000  Level Memphis Center
Sat 01:25:44 PM 32.8703 -90.5231 245° Southwest 396 456 38,000  Level Memphis Center
Sat 01:26:44 PM 32.8239 -90.6367 244° Southwest 391 450 38,000  Level Memphis Center
Sat 01:27:44 PM 32.7736 -90.7525 243° Southwest 391 450 38,000  Level Memphis Center
Sat 01:28:44 PM 32.7294 -90.8661 245° Southwest 386 444 38,000  Level Memphis Center
Sat 01:29:44 PM 32.6831 -90.9817 245° Southwest 386 444 38,000  Level Memphis Center
Sat 01:30:44 PM 32.6364 -91.0900 243° Southwest 386 444 38,000  Level Memphis Center
Sat 01:33:10 PM 32.5372 -91.3433 245° Southwest 376 433 38,000  Level Houston Center
Sat 01:34:12 PM 32.4808 -91.4772 243° Southwest 379 436 38,000  Level Houston Center
Sat 01:35:14 PM 32.4353 -91.5914 245° Southwest 382 440 38,000  Level Houston Center
Sat 01:36:16 PM 32.3872 -91.7036 243° Southwest 383 441 38,000  Level Houston Center
Sat 01:37:17 PM 32.3383 -91.8139 242° Southwest 379 436 38,000  Level Houston Center
Sat 01:38:19 PM 32.2931 -91.9275 245° Southwest 382 440 38,000 -48 Level Houston Center
Sat 01:39:21 PM 32.2442 -92.0444 244° Southwest 379 436 37,900  Descending Houston Center
Sat 01:40:23 PM 32.1947 -92.1497 241° Southwest 372 428 38,000  Climbing Houston Center
Sat 01:41:25 PM 32.1497 -92.2606 244° Southwest 374 430 37,900 -48 Descending Houston Center
Sat 01:42:27 PM 32.0931 -92.3917 243° Southwest 374 430 37,900  Level Houston Center
Sat 01:43:29 PM 32.0350 -92.4953 237° Southwest 379 436 37,900  Level Houston Center
Sat 01:44:31 PM 31.9511 -92.5844 222° Southwest 400 460 37,900  Level Houston Center
Sat 01:45:32 PM 31.8683 -92.6725 222° Southwest 401 461 37,900  Level Houston Center
Sat 01:46:34 PM 31.7853 -92.7592 222° Southwest 400 460 37,900  Level Houston Center
Sat 01:47:36 PM 31.7022 -92.8453 221° Southwest 399 459 37,900  Level Houston Center
Sat 01:48:38 PM 31.6028 -92.9469 221° Southwest 395 455 37,900  Level Houston Center
Sat 01:49:40 PM 31.5186 -93.0325 221° Southwest 399 459 37,900  Level Houston Center
Sat 01:50:42 PM 31.4361 -93.1175 221° Southwest 398 458 37,900  Level Houston Center
Sat 01:51:44 PM 31.3528 -93.2031 221° Southwest 399 459 37,900 -146 Level Houston Center
Sat 01:52:45 PM 31.2600 -93.2972 221° Southwest 401 461 37,600 -732 Descending Houston Center
Sat 01:53:47 PM 31.1844 -93.3733 221° Southwest 399 459 36,400 -823 Descending Houston Center
Sat 01:54:49 PM 31.0861 -93.4722 221° Southwest 390 449 35,900 -1,306 Descending Houston Center
Sat 01:55:51 PM 31.0042 -93.5569 222° Southwest 394 453 33,700 -2,419 Descending Houston Center
Sat 01:56:53 PM 30.9211 -93.6417 221° Southwest 397 457 30,900 -2,468 Descending Houston Center
Sat 01:57:55 PM 30.8364 -93.7272 221° Southwest 402 463 28,600 -2,081 Descending Houston Center
Sat 01:58:57 PM 30.7542 -93.8083 220° Southwest 395 455 26,600 -1,984 Descending Houston Center
Sat 01:59:59 PM 30.6775 -93.8861 221° Southwest 374 430 24,500 -2,208 Descending Houston Center
Sat 02:00:43 PM 30.6072 -93.9558 221° Southwest 367 422 22,700 -2,419 Descending Houston Center
Sat 02:01:01 PM 30.5850 -93.9789 222° Southwest 370 426 22,000 -2,262 Descending Houston Center
Sat 02:01:44 PM 30.5269 -94.0347 220° Southwest 360 414 20,400 -2,129 Descending Houston Center
Sat 02:02:03 PM 30.5094 -94.0539 223° Southwest 363 418 19,800 -1,800 Descending Houston Center
Sat 02:03:04 PM 30.4392 -94.1278 222° Southwest 349 402 18,000 -1,418 Descending Houston Center
Sat 02:03:53 PM 30.4006 -94.1997 238° Southwest 300 345 17,200 -1,473 Descending Houston Center
Sat 02:04:54 PM 30.3581 -94.2806 239° Southwest 266 306 15,300 -1,918 Descending Houston Center
Sat 02:05:55 PM 30.3197 -94.3606 241° Southwest 269 310 13,300 -1,974 Descending Houston Center
Sat 02:06:10 PM 30.3106 -94.3775 238° Southwest 270 311 12,800 -1,645 Descending Houston Center
Sat 02:06:57 PM 30.2792 -94.4386 239° Southwest 278 320 11,600 -1,548 Descending Houston Center
Sat 02:07:12 PM 30.2706 -94.4547 238° Southwest 278 320 11,200 -655 Descending Houston Center
Sat 02:07:52 PM 30.2439 -94.5086 240° Southwest 275 316 11,000 -194 Descending Houston Center
Sat 02:08:14 PM 30.2319 -94.5314 239° Southwest 275 316 11,000  Level Houston Center
Sat 02:09:00 PM 30.1997 -94.5942 239° Southwest 274 315 11,000  Level Houston Center
Sat 02:09:16 PM 30.1933 -94.6072 240° Southwest 275 316 11,000 -1,082 Level Houston Center
Sat 02:10:01 PM 30.1611 -94.6717 240° Southwest 270 311 9,900 -1,258 Descending Houston Center
Sat 02:10:18 PM 30.1556 -94.6817 237° Southwest 270 311 9,700 -1,377 Descending Houston Center
Sat 02:11:02 PM 30.1239 -94.7442 240° Southwest 267 307 8,500 -1,258 Descending Houston Center
Sat 02:11:20 PM 30.1186 -94.7550 241° Southwest 266 306 8,400 -1,161 Descending Houston Center
Sat 02:12:04 PM 30.0850 -94.8192 239° Southwest 255 293 7,300 -1,258 Descending Houston Center
Sat 02:12:22 PM 30.0819 -94.8250 239° Southwest 257 296 7,100 -1,279 Descending Houston Center
Sat 02:13:05 PM 30.0478 -94.8914 239° Southwest 252 290 6,000 -1,065 Descending Houston Center
Sat 02:13:24 PM 30.0394 -94.9092 242° Southwest 255 293 6,000 -787 Level Houston Center
Sat 02:14:06 PM 30.0144 -94.9608 241° Southwest 248 285 5,200 -1,065 Descending Houston Center
Sat 02:14:26 PM 30.0119 -94.9792 261° West 242 278 4,900 -1,065 Descending Houston Center
Sat 02:15:08 PM 29.9983 -95.0350 254° West 225 259 4,100 -871 Descending Houston Center
Sat 02:15:28 PM 29.9972 -95.0492 265° West 228 262 4,000 -536 Descending Houston Center
Sat 02:16:04 PM 29.9933 -95.0961 265° West 202 232 3,600 -581 Descending Houston Center
Sat 02:16:30 PM 29.9939 -95.1122 272° West 206 237 3,400 -885 Descending Houston Center
Sat 02:17:05 PM 29.9922 -95.1517 267° West 169 194 2,700 -968 Descending Houston Center
Sat 02:17:32 PM 29.9942 -95.1681 278° West 189 217 2,400 -689 Descending Houston Center
Sat 02:18:06 PM 29.9933 -95.2069 269° West 162 186 2,000 -581 Descending Houston Center
Sat 02:18:34 PM 29.9947 -95.2294 274° West 173 199 1,800 -590 Descending Houston Center
Sat 02:19:07 PM 29.9933 -95.2528 266° West 133 153 1,400 -581 Descending Houston Center
Sat 02:19:36 PM 29.9936 -95.2711 271° West 153 176 1,200 -536 Descending Houston Center
Sat 02:20:03 PM 29.9944 -95.2889 273° West 127 146 900 -581 Descending Houston Center
Sat 02:20:38 PM 29.9947 -95.3075 271° West 132 152 600 -309 Descending Houston Center
Sat 02:21:40 PM 29.9958 -95.3456 272° West 129 148 400 -194 Descending Houston Center

Login

Don't have an account? Register now (free) for customized features, flight alerts, and more!